Time;durP1;ratioP1;P1;durP2;ratioP2;P2;SDS_P1;SDS_P2;PMS_P1;PMS_P2;Temp;Humidity;BMP_temperature;BMP_pressure;BME280_temperature;BME280_humidity;BME280_pressure;Samples;Min_cycle;Max_cycle;Signal;HPM_P1;HPM_P2
2021/01/31 00:00:45;;;;;;;24.40;10.90;;;;;;;;;;651662;214;915946;-70
2021/01/31 00:03:10;;;;;;;21.27;10.20;;;;;;;;;;657014;214;916100;-69
2021/01/31 00:05:36;;;;;;;30.10;10.55;;;;;;;;;;651743;213;919531;-70
2021/01/31 00:08:02;;;;;;;22.07;8.93;;;;;;;;;;655417;213;921353;-70
2021/01/31 00:10:32;;;;;;;14.50;10.02;;;;;;;;;;658633;214;2032329;-69
2021/01/31 00:12:58;;;;;;;17.90;9.80;;;;;;;;;;658683;212;918136;-70
2021/01/31 00:15:24;;;;;;;16.30;8.40;;;;;;;;;;651854;214;921153;-69
2021/01/31 00:17:50;;;;;;;21.30;12.60;;;;;;;;;;650543;211;919253;-69
2021/01/31 00:20:16;;;;;;;26.37;14.70;;;;;;;;;;657766;214;920074;-70
2021/01/31 00:22:42;;;;;;;32.43;14.23;;;;;;;;;;652853;211;918238;-70
2021/01/31 00:25:08;;;;;;;29.70;13.87;;;;;;;;;;652879;214;918202;-70
2021/01/31 00:27:34;;;;;;;26.33;11.63;;;;;;;;;;655940;211;919774;-70
2021/01/31 00:30:00;;;;;;;23.23;11.87;;;;;;;;;;654428;214;917862;-69
2021/01/31 00:32:26;;;;;;;27.43;13.40;;;;;;;;;;652044;214;919682;-70
2021/01/31 00:34:51;;;;;;;25.12;10.95;;;;;;;;;;650536;214;918720;-69
2021/01/31 00:37:17;;;;;;;16.80;8.53;;;;;;;;;;654080;211;949610;-69
2021/01/31 00:39:43;;;;;;;25.67;11.30;;;;;;;;;;651269;214;919048;-70
2021/01/31 00:42:09;;;;;;;13.00;7.13;;;;;;;;;;651313;211;918856;-70
2021/01/31 00:44:35;;;;;;;16.95;7.05;;;;;;;;;;656829;214;917132;-69
2021/01/31 00:47:01;;;;;;;16.80;9.60;;;;;;;;;;650863;211;919255;-69
2021/01/31 00:49:27;;;;;;;22.67;13.43;;;;;;;;;;652027;211;919299;-70
2021/01/31 00:51:52;;;;;;;19.20;10.10;;;;;;;;;;656329;214;918900;-70
2021/01/31 00:54:18;;;;;;;19.80;10.23;;;;;;;;;;651271;214;921371;-68
2021/01/31 00:56:44;;;;;;;20.30;10.13;;;;;;;;;;653955;214;918885;-70
2021/01/31 00:59:11;;;;;;;21.20;11.52;;;;;;;;;;650967;214;1730921;-70
2021/01/31 01:01:37;;;;;;;18.53;9.57;;;;;;;;;;656276;214;920628;-70
2021/01/31 01:04:02;;;;;;;31.97;12.73;;;;;;;;;;648689;214;918402;-71
2021/01/31 01:06:28;;;;;;;17.00;9.07;;;;;;;;;;652620;214;920379;-71
2021/01/31 01:08:54;;;;;;;20.27;10.27;;;;;;;;;;655261;214;920334;-69
2021/01/31 01:11:20;;;;;;;16.67;8.55;;;;;;;;;;652561;214;913464;-69
2021/01/31 01:13:46;;;;;;;18.00;8.83;;;;;;;;;;650667;214;916143;-70
2021/01/31 01:16:12;;;;;;;15.05;8.80;;;;;;;;;;657119;214;919199;-70
2021/01/31 01:18:39;;;;;;;15.70;8.57;;;;;;;;;;646932;212;2741011;-69
2021/01/31 01:21:04;;;;;;;17.23;10.73;;;;;;;;;;654287;214;919133;-69
2021/01/31 01:23:29;;;;;;;20.88;9.35;;;;;;;;;;656419;211;918880;-70
2021/01/31 01:25:55;;;;;;;19.60;10.93;;;;;;;;;;651178;214;919697;-70
2021/01/31 01:28:21;;;;;;;22.83;12.03;;;;;;;;;;650430;214;1022777;-69
2021/01/31 01:30:47;;;;;;;23.20;9.70;;;;;;;;;;651512;211;919038;-69
2021/01/31 01:33:13;;;;;;;14.15;7.82;;;;;;;;;;657634;214;919142;-70
2021/01/31 01:35:39;;;;;;;12.50;8.93;;;;;;;;;;650040;212;919012;-70
2021/01/31 01:38:04;;;;;;;20.50;10.43;;;;;;;;;;652490;214;1020637;-68
2021/01/31 01:40:31;;;;;;;18.80;11.23;;;;;;;;;;656399;212;915193;-70
2021/01/31 01:42:57;;;;;;;16.37;9.10;;;;;;;;;;653883;214;1019247;-69
2021/01/31 01:45:23;;;;;;;27.52;13.23;;;;;;;;;;648402;211;919025;-68
2021/01/31 01:47:49;;;;;;;20.00;11.23;;;;;;;;;;657594;214;919366;-70
2021/01/31 01:50:18;;;;;;;19.17;9.90;;;;;;;;;;651033;211;918712;-69
2021/01/31 01:52:44;;;;;;;10.97;6.93;;;;;;;;;;649073;214;1737865;-69
2021/01/31 01:55:10;;;;;;;19.10;9.27;;;;;;;;;;650365;211;921141;-70
2021/01/31 01:57:37;;;;;;;21.97;11.50;;;;;;;;;;654887;214;920965;-70
2021/01/31 02:00:04;;;;;;;21.55;11.02;;;;;;;;;;649446;212;919839;-70
2021/01/31 02:02:30;;;;;;;19.20;9.87;;;;;;;;;;652329;214;916029;-69
2021/01/31 02:04:56;;;;;;;9.90;6.00;;;;;;;;;;657192;214;919443;-68
2021/01/31 02:07:22;;;;;;;13.83;8.77;;;;;;;;;;650831;214;1144202;-69
2021/01/31 02:09:47;;;;;;;14.27;9.13;;;;;;;;;;652963;214;920131;-68
2021/01/31 02:12:15;;;;;;;14.02;7.45;;;;;;;;;;654748;214;1020645;-69
2021/01/31 02:14:40;;;;;;;13.37;8.77;;;;;;;;;;656618;214;918568;-69
2021/01/31 02:17:06;;;;;;;11.77;8.97;;;;;;;;;;650475;214;918694;-70
2021/01/31 02:19:42;;;;;;;27.33;11.50;;;;;;;;;;651799;214;919341;-70
2021/01/31 02:22:09;;;;;;;13.30;7.17;;;;;;;;;;653747;214;919138;-69
2021/01/31 02:24:35;;;;;;;15.10;8.30;;;;;;;;;;653587;214;919395;-70
2021/01/31 02:27:05;;;;;;;16.80;9.10;;;;;;;;;;651763;211;918706;-70
2021/01/31 02:29:35;;;;;;;14.97;9.30;;;;;;;;;;653512;212;918176;-71
2021/01/31 02:32:03;;;;;;;9.93;6.00;;;;;;;;;;656087;210;918926;-70
2021/01/31 02:34:31;;;;;;;20.73;10.43;;;;;;;;;;653320;214;919516;-70
2021/01/31 02:37:02;;;;;;;20.47;10.50;;;;;;;;;;649850;210;918712;-70
2021/01/31 02:39:29;;;;;;;21.50;10.10;;;;;;;;;;651800;214;919672;-71
2021/01/31 02:42:10;;;;;;;15.17;8.00;;;;;;;;;;655683;213;919056;-70
2021/01/31 02:44:36;;;;;;;19.55;10.23;;;;;;;;;;658234;214;919300;-71
2021/01/31 02:47:01;;;;;;;19.00;10.70;;;;;;;;;;650595;214;1279561;-71
2021/01/31 02:49:27;;;;;;;18.80;10.33;;;;;;;;;;652490;214;919384;-71
2021/01/31 02:51:59;;;;;;;21.87;10.73;;;;;;;;;;654471;214;919658;-71
2021/01/31 02:54:25;;;;;;;15.63;9.87;;;;;;;;;;659075;214;919354;-70
2021/01/31 02:56:51;;;;;;;18.73;9.77;;;;;;;;;;652427;214;919389;-70
2021/01/31 02:59:17;;;;;;;13.23;6.87;;;;;;;;;;650423;211;938619;-70
2021/01/31 03:01:45;;;;;;;19.30;10.90;;;;;;;;;;657766;214;918993;-70
2021/01/31 03:04:12;;;;;;;19.73;11.33;;;;;;;;;;648969;211;919045;-70
2021/01/31 03:06:38;;;;;;;14.57;8.97;;;;;;;;;;652599;214;918742;-70
2021/01/31 03:09:23;;;;;;;18.83;8.70;;;;;;;;;;650860;214;919221;-70
2021/01/31 03:11:49;;;;;;;16.90;7.90;;;;;;;;;;650046;214;919062;-70
2021/01/31 03:14:15;;;;;;;25.60;13.53;;;;;;;;;;655521;214;918920;-69
2021/01/31 03:16:42;;;;;;;22.10;13.50;;;;;;;;;;651429;214;919910;-70
2021/01/31 03:19:08;;;;;;;27.55;11.30;;;;;;;;;;651088;214;918664;-70
2021/01/31 03:21:34;;;;;;;20.07;11.53;;;;;;;;;;656562;214;918267;-68
2021/01/31 03:24:01;;;;;;;23.30;13.65;;;;;;;;;;649205;213;918286;-70
2021/01/31 03:26:38;;;;;;;30.47;14.30;;;;;;;;;;651739;214;917489;-69
2021/01/31 03:29:03;;;;;;;21.07;12.33;;;;;;;;;;649091;212;1017397;-71
2021/01/31 03:31:29;;;;;;;22.23;10.73;;;;;;;;;;657932;214;919582;-70
2021/01/31 03:33:56;;;;;;;24.17;13.87;;;;;;;;;;652577;211;919196;-70
2021/01/31 03:36:22;;;;;;;24.97;12.20;;;;;;;;;;652448;214;918844;-71
2021/01/31 03:38:47;;;;;;;24.30;13.97;;;;;;;;;;655453;211;918920;-70
2021/01/31 03:41:14;;;;;;;28.17;15.07;;;;;;;;;;652836;212;919050;-70
2021/01/31 03:43:40;;;;;;;22.87;12.80;;;;;;;;;;654514;214;918367;-70
2021/01/31 03:46:08;;;;;;;28.00;14.33;;;;;;;;;;650591;210;942590;-70
2021/01/31 03:48:34;;;;;;;28.10;14.63;;;;;;;;;;657967;214;919262;-70
2021/01/31 03:51:00;;;;;;;35.20;18.70;;;;;;;;;;652100;212;916820;-69
2021/01/31 03:53:26;;;;;;;30.57;16.70;;;;;;;;;;653703;214;917885;-69
2021/01/31 03:55:52;;;;;;;24.93;12.10;;;;;;;;;;653984;210;1461354;-70
2021/01/31 03:58:18;;;;;;;36.83;17.80;;;;;;;;;;651196;214;919047;-69
2021/01/31 04:00:45;;;;;;;22.97;9.47;;;;;;;;;;650884;211;919761;-68
2021/01/31 04:03:11;;;;;;;27.60;13.33;;;;;;;;;;652994;214;919075;-69
2021/01/31 04:05:37;;;;;;;39.67;21.17;;;;;;;;;;656269;211;919219;-69
2021/01/31 04:08:03;;;;;;;33.83;14.03;;;;;;;;;;650687;214;919715;-69
2021/01/31 04:10:29;;;;;;;41.40;19.47;;;;;;;;;;649685;211;1017392;-70
2021/01/31 04:12:55;;;;;;;41.90;22.47;;;;;;;;;;657069;214;919321;-69
2021/01/31 04:15:39;;;;;;;38.30;18.57;;;;;;;;;;650955;214;920826;-70
2021/01/31 04:18:05;;;;;;;40.57;20.37;;;;;;;;;;652435;214;918963;-69
2021/01/31 04:20:31;;;;;;;37.13;18.97;;;;;;;;;;650968;214;917323;-70
2021/01/31 04:22:57;;;;;;;25.90;12.97;;;;;;;;;;656055;214;916994;-71
2021/01/31 04:25:23;;;;;;;32.47;18.17;;;;;;;;;;650623;214;930645;-70
2021/01/31 04:27:49;;;;;;;40.40;19.10;;;;;;;;;;653318;214;918940;-69
2021/01/31 04:30:15;;;;;;;32.37;12.43;;;;;;;;;;651800;214;920392;-69
2021/01/31 04:32:41;;;;;;;28.08;15.82;;;;;;;;;;655222;214;915856;-71
2021/01/31 04:35:08;;;;;;;29.87;16.00;;;;;;;;;;651440;214;914735;-70
2021/01/31 04:37:34;;;;;;;28.37;15.73;;;;;;;;;;650871;214;916462;-70
2021/01/31 04:40:00;;;;;;;29.65;16.10;;;;;;;;;;656801;214;915195;-70
2021/01/31 04:42:26;;;;;;;30.03;15.97;;;;;;;;;;649973;211;999449;-70
2021/01/31 04:44:51;;;;;;;29.80;16.83;;;;;;;;;;651745;214;914264;-69
2021/01/31 04:47:23;;;;;;;25.17;11.57;;;;;;;;;;654147;211;910647;-70
2021/01/31 04:50:06;;;;;;;34.35;16.65;;;;;;;;;;657017;214;912048;-70
2021/01/31 04:52:41;;;;;;;34.93;16.10;;;;;;;;;;657855;210;910804;-69
2021/01/31 04:55:09;;;;;;;28.70;15.00;;;;;;;;;;654914;213;918451;-71
2021/01/31 04:57:38;;;;;;;32.80;16.27;;;;;;;;;;651968;214;917926;-69
2021/01/31 05:00:04;;;;;;;32.73;17.40;;;;;;;;;;655228;214;916581;-70
2021/01/31 05:02:35;;;;;;;32.67;15.03;;;;;;;;;;654651;214;1283295;-70
2021/01/31 05:05:01;;;;;;;25.58;13.60;;;;;;;;;;652683;214;924347;-70
2021/01/31 05:07:27;;;;;;;28.23;16.33;;;;;;;;;;652542;214;918933;-69
2021/01/31 05:09:53;;;;;;;28.95;14.50;;;;;;;;;;657450;214;919293;-70
2021/01/31 05:12:20;;;;;;;33.33;16.70;;;;;;;;;;653221;211;919113;-69
2021/01/31 05:14:45;;;;;;;31.27;17.23;;;;;;;;;;652164;214;919025;-71
2021/01/31 05:17:11;;;;;;;61.10;26.58;;;;;;;;;;649669;214;919271;-69
2021/01/31 05:19:37;;;;;;;40.93;22.03;;;;;;;;;;655486;214;919508;-71
2021/01/31 05:22:02;;;;;;;42.80;23.70;;;;;;;;;;653024;214;919091;-69
2021/01/31 05:24:28;;;;;;;57.63;37.27;;;;;;;;;;652350;211;918947;-70
2021/01/31 05:26:54;;;;;;;39.00;19.92;;;;;;;;;;655334;214;919457;-71
2021/01/31 05:29:20;;;;;;;29.07;15.93;;;;;;;;;;652336;211;1017669;-69
2021/01/31 05:31:47;;;;;;;47.17;23.20;;;;;;;;;;653608;214;919449;-70
2021/01/31 05:34:12;;;;;;;40.57;22.07;;;;;;;;;;653704;211;1015689;-70
2021/01/31 05:36:38;;;;;;;23.53;13.17;;;;;;;;;;653673;214;919127;-71
2021/01/31 05:39:04;;;;;;;32.30;17.70;;;;;;;;;;653296;211;900988;-70
2021/01/31 05:41:36;;;;;;;27.73;14.70;;;;;;;;;;650975;214;1009204;-70
2021/01/31 05:44:02;;;;;;;33.47;17.60;;;;;;;;;;654266;214;918900;-69
2021/01/31 05:46:32;;;;;;;31.65;19.17;;;;;;;;;;651109;214;918398;-69
2021/01/31 05:48:58;;;;;;;37.87;17.13;;;;;;;;;;649455;214;923433;-70
2021/01/31 05:51:24;;;;;;;32.77;18.77;;;;;;;;;;652828;212;918355;-70
2021/01/31 05:53:50;;;;;;;44.20;24.77;;;;;;;;;;655323;214;919529;-70
2021/01/31 05:56:18;;;;;;;41.13;23.93;;;;;;;;;;649660;214;918072;-69
2021/01/31 05:58:44;;;;;;;27.57;16.03;;;;;;;;;;652594;214;919421;-69
2021/01/31 06:01:10;;;;;;;36.33;20.55;;;;;;;;;;655220;211;914947;-70
2021/01/31 06:03:36;;;;;;;34.57;19.43;;;;;;;;;;652245;213;916408;-69
2021/01/31 06:06:09;;;;;;;35.90;17.43;;;;;;;;;;650400;213;915405;-69
2021/01/31 06:08:35;;;;;;;33.53;17.10;;;;;;;;;;653724;214;918953;-69
2021/01/31 06:11:04;;;;;;;43.63;19.17;;;;;;;;;;641173;214;4848162;-70
2021/01/31 06:13:30;;;;;;;55.63;25.67;;;;;;;;;;655249;214;920216;-71
2021/01/31 06:15:56;;;;;;;45.33;22.70;;;;;;;;;;652548;211;918547;-70
2021/01/31 06:18:22;;;;;;;33.77;19.60;;;;;;;;;;657438;214;919201;-70
2021/01/31 06:20:48;;;;;;;48.60;24.60;;;;;;;;;;651837;210;919340;-70
2021/01/31 06:23:20;;;;;;;42.43;21.37;;;;;;;;;;651242;214;920073;-69
2021/01/31 06:25:46;;;;;;;34.33;19.92;;;;;;;;;;648972;211;919115;-69
2021/01/31 06:28:12;;;;;;;48.10;22.80;;;;;;;;;;657227;214;926591;-69
2021/01/31 06:30:40;;;;;;;39.80;20.40;;;;;;;;;;650647;213;1263131;-69
2021/01/31 06:33:06;;;;;;;43.73;20.20;;;;;;;;;;651051;214;918648;-68
2021/01/31 06:35:32;;;;;;;38.30;18.47;;;;;;;;;;652754;214;1029559;-69
2021/01/31 06:37:58;;;;;;;39.73;21.17;;;;;;;;;;654077;214;919887;-68
2021/01/31 06:40:30;;;;;;;39.80;20.23;;;;;;;;;;652433;214;920104;-69
2021/01/31 06:43:02;;;;;;;36.17;17.80;;;;;;;;;;650775;214;918650;-69
2021/01/31 06:45:30;;;;;;;35.35;19.37;;;;;;;;;;652681;214;918943;-68
2021/01/31 06:47:57;;;;;;;33.83;18.53;;;;;;;;;;654938;214;919307;-69
2021/01/31 06:50:24;;;;;;;30.40;16.13;;;;;;;;;;651296;214;921011;-69
2021/01/31 06:53:01;;;;;;;28.12;15.10;;;;;;;;;;649854;214;918412;-69
2021/01/31 06:55:32;;;;;;;33.23;17.90;;;;;;;;;;651616;214;916858;-69
2021/01/31 06:57:58;;;;;;;32.37;18.60;;;;;;;;;;653140;211;1189671;-69
2021/01/31 07:00:26;;;;;;;41.88;20.25;;;;;;;;;;652064;214;919463;-70
2021/01/31 07:02:52;;;;;;;35.50;19.00;;;;;;;;;;649837;211;919396;-70
2021/01/31 07:05:21;;;;;;;32.27;19.80;;;;;;;;;;655953;214;1019963;-69
2021/01/31 07:07:47;;;;;;;34.53;20.70;;;;;;;;;;654846;211;915121;-70
2021/01/31 07:10:19;;;;;;;53.10;32.20;;;;;;;;;;650490;214;919763;-69
2021/01/31 07:13:05;;;;;;;35.13;21.40;;;;;;;;;;651739;214;909671;-70
2021/01/31 07:15:33;;;;;;;40.33;20.73;;;;;;;;;;655508;211;921943;-69
2021/01/31 07:17:59;;;;;;;39.43;24.13;;;;;;;;;;646844;212;2198142;-69
2021/01/31 07:20:26;;;;;;;48.83;24.77;;;;;;;;;;658808;214;919949;-69
2021/01/31 07:22:52;;;;;;;54.17;27.40;;;;;;;;;;651511;214;1021110;-68
2021/01/31 07:25:32;;;;;;;196.17;86.70;;;;;;;;;;652994;214;918868;-69
2021/01/31 07:28:04;;;;;;;98.03;43.60;;;;;;;;;;648557;213;918523;-70
2021/01/31 07:30:33;;;;;;;130.87;48.13;;;;;;;;;;658006;214;919560;-70
2021/01/31 07:33:04;;;;;;;75.10;36.30;;;;;;;;;;652497;214;918267;-69
2021/01/31 07:35:30;;;;;;;48.47;25.77;;;;;;;;;;653748;214;918092;-70
2021/01/31 07:38:06;;;;;;;32.80;19.37;;;;;;;;;;649371;214;1294887;-71
2021/01/31 07:40:32;;;;;;;41.93;23.10;;;;;;;;;;644822;214;919333;-69
2021/01/31 07:42:59;;;;;;;37.40;24.37;;;;;;;;;;656958;212;919746;-69
2021/01/31 07:45:25;;;;;;;36.27;20.37;;;;;;;;;;651697;211;919194;-70
2021/01/31 07:47:50;;;;;;;27.58;17.55;;;;;;;;;;654585;214;814748;-70
2021/01/31 07:50:17;;;;;;;39.73;20.73;;;;;;;;;;654109;212;918827;-69
2021/01/31 07:52:45;;;;;;;32.00;19.83;;;;;;;;;;655075;214;916124;-69
2021/01/31 07:55:11;;;;;;;31.65;16.73;;;;;;;;;;650542;211;1021655;-70
2021/01/31 07:57:38;;;;;;;33.80;18.73;;;;;;;;;;651951;214;920225;-68
2021/01/31 08:00:09;;;;;;;33.73;17.30;;;;;;;;;;651827;211;917828;-69
2021/01/31 08:02:35;;;;;;;39.10;22.20;;;;;;;;;;653440;214;918230;-69
2021/01/31 08:05:01;;;;;;;34.23;20.20;;;;;;;;;;654167;214;640954;-70
2021/01/31 08:07:32;;;;;;;37.23;19.30;;;;;;;;;;659518;214;628778;-71
2021/01/31 08:09:58;;;;;;;41.57;20.93;;;;;;;;;;658893;214;622826;-70
2021/01/31 08:12:24;;;;;;;44.77;23.40;;;;;;;;;;654822;214;858444;-72
2021/01/31 08:15:10;;;;;;;59.73;28.10;;;;;;;;;;652815;214;637154;-73
2021/01/31 08:17:39;;;;;;;112.63;37.77;;;;;;;;;;655665;214;622231;-72
2021/01/31 08:20:11;;;;;;;72.80;36.07;;;;;;;;;;657254;214;629298;-72
2021/01/31 08:22:37;;;;;;;47.80;27.50;;;;;;;;;;656828;214;625443;-72
2021/01/31 08:25:03;;;;;;;77.93;32.17;;;;;;;;;;652850;211;709698;-71
2021/01/31 08:27:34;;;;;;;82.47;37.77;;;;;;;;;;655818;213;628457;-71
2021/01/31 08:30:06;;;;;;;66.80;28.63;;;;;;;;;;658314;210;617248;-71
2021/01/31 08:32:32;;;;;;;51.93;25.70;;;;;;;;;;662967;214;669551;-70
2021/01/31 08:35:00;;;;;;;35.50;16.67;;;;;;;;;;657119;214;636875;-70
2021/01/31 08:37:26;;;;;;;35.07;18.80;;;;;;;;;;654763;211;635188;-71
2021/01/31 08:39:52;;;;;;;27.43;13.93;;;;;;;;;;660355;214;627280;-71
2021/01/31 08:42:18;;;;;;;28.53;13.37;;;;;;;;;;655353;214;633586;-71
2021/01/31 08:44:43;;;;;;;81.43;31.57;;;;;;;;;;657938;214;625209;-71
2021/01/31 08:47:11;;;;;;;64.23;32.43;;;;;;;;;;655261;214;1130035;-70
2021/01/31 08:49:35;;;;;;;64.83;28.87;;;;;;;;;;656174;214;630750;-71
2021/01/31 08:52:04;;;;;;;34.27;17.53;;;;;;;;;;654736;214;622358;-71
2021/01/31 08:54:30;;;;;;;42.23;23.23;;;;;;;;;;655741;214;625509;-69
2021/01/31 08:56:55;;;;;;;34.47;15.77;;;;;;;;;;658354;214;621491;-70
2021/01/31 08:59:24;;;;;;;41.30;21.67;;;;;;;;;;655459;214;640169;-70
2021/01/31 09:01:50;;;;;;;70.07;28.73;;;;;;;;;;655037;214;631198;-71
2021/01/31 09:04:16;;;;;;;60.07;25.90;;;;;;;;;;659553;214;626456;-70
2021/01/31 09:06:42;;;;;;;48.03;25.70;;;;;;;;;;655723;214;633847;-70
2021/01/31 09:09:08;;;;;;;22.50;8.67;;;;;;;;;;656857;214;625111;-69
2021/01/31 09:11:34;;;;;;;45.00;23.70;;;;;;;;;;653733;211;674177;-69
2021/01/31 09:14:06;;;;;;;32.90;19.90;;;;;;;;;;657579;214;619890;-69
2021/01/31 09:16:31;;;;;;;34.73;20.37;;;;;;;;;;655451;214;639330;-68
2021/01/31 09:19:02;;;;;;;45.37;25.80;;;;;;;;;;653508;211;630266;-70
2021/01/31 09:21:28;;;;;;;18.57;10.90;;;;;;;;;;656373;214;632505;-69
2021/01/31 09:23:56;;;;;;;41.47;21.27;;;;;;;;;;655689;211;779996;-67
2021/01/31 09:26:21;;;;;;;41.70;22.80;;;;;;;;;;655463;214;623781;-68
2021/01/31 09:28:47;;;;;;;102.37;45.40;;;;;;;;;;653470;214;626993;-68
2021/01/31 09:31:13;;;;;;;79.30;36.33;;;;;;;;;;658577;214;644182;-69
2021/01/31 09:33:40;;;;;;;84.77;44.73;;;;;;;;;;653437;211;1029704;-69
2021/01/31 09:36:11;;;;;;;41.20;25.10;;;;;;;;;;657345;214;634062;-68
2021/01/31 09:38:37;;;;;;;30.57;16.20;;;;;;;;;;655050;211;680211;-68
2021/01/31 09:41:02;;;;;;;27.67;16.97;;;;;;;;;;661445;214;637524;-68
2021/01/31 09:43:28;;;;;;;30.93;14.10;;;;;;;;;;653406;211;718078;-69
2021/01/31 09:45:54;;;;;;;26.70;17.47;;;;;;;;;;656697;214;631517;-68
2021/01/31 09:48:20;;;;;;;25.40;11.57;;;;;;;;;;658163;214;633414;-68
2021/01/31 09:51:01;;;;;;;24.50;15.00;;;;;;;;;;656612;214;641572;-69
2021/01/31 09:53:27;;;;;;;16.70;9.70;;;;;;;;;;652604;214;1150228;-69
2021/01/31 09:55:53;;;;;;;22.80;13.93;;;;;;;;;;656837;214;623732;-69
2021/01/31 09:58:19;;;;;;;23.43;11.83;;;;;;;;;;658442;214;634296;-71
2021/01/31 10:00:44;;;;;;;22.93;9.27;;;;;;;;;;657719;214;661522;-75
2021/01/31 10:03:11;;;;;;;25.00;14.10;;;;;;;;;;657305;214;631668;-73
2021/01/31 10:05:38;;;;;;;70.57;30.05;;;;;;;;;;657528;214;618729;-75
2021/01/31 10:08:04;;;;;;;40.40;20.20;;;;;;;;;;658537;214;620484;-77
2021/01/31 10:10:31;;;;;;;15.60;9.07;;;;;;;;;;654238;214;639125;-77
2021/01/31 10:13:12;;;;;;;19.90;11.20;;;;;;;;;;656797;214;617227;-77
2021/01/31 10:15:38;;;;;;;20.07;10.63;;;;;;;;;;652396;214;633482;-76
2021/01/31 10:18:04;;;;;;;46.40;20.67;;;;;;;;;;659646;214;617769;-76
2021/01/31 10:20:30;;;;;;;21.17;13.20;;;;;;;;;;653889;211;614550;-77
2021/01/31 10:22:57;;;;;;;36.90;20.97;;;;;;;;;;655368;214;628726;-76
2021/01/31 10:25:23;;;;;;;22.13;13.27;;;;;;;;;;658032;211;653505;-75
2021/01/31 10:27:49;;;;;;;19.00;9.13;;;;;;;;;;657151;214;634145;-75
2021/01/31 10:30:17;;;;;;;17.03;7.03;;;;;;;;;;654922;211;626320;-76
2021/01/31 10:32:43;;;;;;;19.57;10.70;;;;;;;;;;656006;214;626196;-77
2021/01/31 10:35:15;;;;;;;21.70;12.77;;;;;;;;;;656241;212;624262;-76
2021/01/31 10:37:41;;;;;;;29.40;16.03;;;;;;;;;;655780;214;643113;-78
2021/01/31 10:40:07;;;;;;;50.95;20.30;;;;;;;;;;650100;211;1162488;-76
2021/01/31 10:42:33;;;;;;;27.43;15.73;;;;;;;;;;659678;214;636505;-77
2021/01/31 10:45:04;;;;;;;47.20;20.83;;;;;;;;;;654877;214;662703;-78
2021/01/31 10:47:30;;;;;;;29.80;17.00;;;;;;;;;;653067;211;754258;-81
2021/01/31 10:49:56;;;;;;;28.17;15.30;;;;;;;;;;655198;214;819673;-83
2021/01/31 10:52:22;;;;;;;30.50;15.30;;;;;;;;;;659284;213;646416;-82
2021/01/31 10:54:48;;;;;;;33.73;18.57;;;;;;;;;;659527;213;619261;-81
2021/01/31 10:57:14;;;;;;;32.00;16.23;;;;;;;;;;653043;213;904742;-77
2021/01/31 10:59:40;;;;;;;22.03;11.30;;;;;;;;;;659493;214;713402;-76
2021/01/31 11:02:06;;;;;;;30.53;16.10;;;;;;;;;;656182;213;714895;-74
2021/01/31 11:04:32;;;;;;;31.63;14.90;;;;;;;;;;657472;214;624577;-74
2021/01/31 11:06:57;;;;;;;21.43;11.83;;;;;;;;;;654059;212;740819;-73
2021/01/31 11:09:23;;;;;;;13.10;9.57;;;;;;;;;;656631;214;632718;-72
2021/01/31 11:11:49;;;;;;;27.83;12.93;;;;;;;;;;653568;211;635586;-72
2021/01/31 11:14:15;;;;;;;31.70;14.20;;;;;;;;;;656925;214;630941;-72
2021/01/31 11:16:41;;;;;;;27.07;12.17;;;;;;;;;;657273;211;697891;-71
2021/01/31 11:19:07;;;;;;;29.63;14.80;;;;;;;;;;653871;214;919803;-71
2021/01/31 11:21:33;;;;;;;32.77;17.50;;;;;;;;;;654171;213;636254;-71
2021/01/31 11:23:58;;;;;;;18.43;11.83;;;;;;;;;;659135;214;690074;-70
2021/01/31 11:26:24;;;;;;;26.50;14.57;;;;;;;;;;657884;214;648404;-71
2021/01/31 11:28:50;;;;;;;24.53;12.60;;;;;;;;;;655760;214;623866;-70
2021/01/31 11:31:16;;;;;;;39.00;20.77;;;;;;;;;;659143;214;625981;-70
2021/01/31 11:33:42;;;;;;;24.07;12.77;;;;;;;;;;654116;214;656006;-69
2021/01/31 11:36:08;;;;;;;9.50;7.77;;;;;;;;;;656204;214;642218;-69
2021/01/31 11:38:33;;;;;;;44.23;20.47;;;;;;;;;;654226;214;629205;-69
2021/01/31 11:40:59;;;;;;;28.10;13.20;;;;;;;;;;659592;214;619856;-70
2021/01/31 11:43:25;;;;;;;36.73;17.60;;;;;;;;;;652759;214;633966;-68
2021/01/31 11:45:51;;;;;;;37.10;20.70;;;;;;;;;;656326;214;629991;-69
2021/01/31 11:48:18;;;;;;;38.70;22.60;;;;;;;;;;657490;211;677836;-70
2021/01/31 11:50:43;;;;;;;42.47;21.90;;;;;;;;;;657595;214;629517;-69
2021/01/31 11:53:09;;;;;;;38.63;18.57;;;;;;;;;;654270;211;625058;-70
2021/01/31 11:55:35;;;;;;;30.80;19.40;;;;;;;;;;658772;214;687409;-70
2021/01/31 11:58:01;;;;;;;41.33;27.00;;;;;;;;;;653761;211;622630;-70
2021/01/31 12:00:27;;;;;;;18.47;10.47;;;;;;;;;;655336;214;633414;-72
2021/01/31 12:02:53;;;;;;;33.57;15.03;;;;;;;;;;656987;213;616553;-71
2021/01/31 12:05:18;;;;;;;46.60;25.10;;;;;;;;;;656934;211;632543;-70
2021/01/31 12:07:44;;;;;;;40.63;20.07;;;;;;;;;;656496;214;618840;-70
2021/01/31 12:10:10;;;;;;;37.20;19.33;;;;;;;;;;654022;211;905271;-70
2021/01/31 12:12:36;;;;;;;23.60;14.53;;;;;;;;;;660334;214;623787;-71
2021/01/31 12:15:02;;;;;;;34.33;16.90;;;;;;;;;;656034;212;633417;-71
2021/01/31 12:17:28;;;;;;;24.27;9.90;;;;;;;;;;657297;214;648990;-71
2021/01/31 12:19:54;;;;;;;33.73;16.43;;;;;;;;;;657119;211;629254;-71
2021/01/31 12:22:20;;;;;;;32.43;17.43;;;;;;;;;;655674;214;630889;-72
2021/01/31 12:24:46;;;;;;;44.17;16.43;;;;;;;;;;654375;211;644544;-71
2021/01/31 12:27:12;;;;;;;24.03;11.50;;;;;;;;;;656590;214;625609;-73
2021/01/31 12:29:38;;;;;;;23.47;13.67;;;;;;;;;;657719;211;648449;-72
2021/01/31 12:32:04;;;;;;;35.33;13.47;;;;;;;;;;655085;214;636784;-72
2021/01/31 12:34:30;;;;;;;33.43;15.80;;;;;;;;;;655103;214;629051;-72
2021/01/31 12:36:55;;;;;;;34.47;19.40;;;;;;;;;;659822;214;630278;-71
2021/01/31 12:39:21;;;;;;;32.23;15.90;;;;;;;;;;656857;214;620955;-71
2021/01/31 12:41:47;;;;;;;32.63;16.23;;;;;;;;;;655187;214;632112;-70
2021/01/31 12:44:14;;;;;;;148.27;48.43;;;;;;;;;;659133;214;633207;-72
2021/01/31 12:46:39;;;;;;;44.70;20.30;;;;;;;;;;654144;214;639646;-72
2021/01/31 12:49:05;;;;;;;24.37;11.70;;;;;;;;;;655873;214;661794;-72
2021/01/31 12:51:31;;;;;;;24.53;11.60;;;;;;;;;;656526;214;636355;-72
2021/01/31 12:53:56;;;;;;;27.20;11.00;;;;;;;;;;656564;214;621545;-72
2021/01/31 12:56:22;;;;;;;38.27;17.27;;;;;;;;;;642723;211;1234850;-71
2021/01/31 12:58:48;;;;;;;28.27;14.40;;;;;;;;;;652391;214;655263;-71
2021/01/31 13:01:14;;;;;;;66.27;38.13;;;;;;;;;;658695;211;623224;-71
2021/01/31 13:03:40;;;;;;;64.17;36.33;;;;;;;;;;657197;214;626695;-72
2021/01/31 13:06:06;;;;;;;32.35;17.67;;;;;;;;;;653816;211;634264;-72
2021/01/31 13:08:31;;;;;;;29.73;16.47;;;;;;;;;;659361;214;621574;-72
2021/01/31 13:10:57;;;;;;;32.83;17.40;;;;;;;;;;654328;214;630793;-72
2021/01/31 13:13:23;;;;;;;21.80;11.97;;;;;;;;;;654923;212;634020;-71
2021/01/31 13:15:54;;;;;;;60.13;31.90;;;;;;;;;;661320;213;616630;-71
2021/01/31 13:18:20;;;;;;;46.13;21.10;;;;;;;;;;656393;213;621094;-71
2021/01/31 13:20:46;;;;;;;46.37;23.93;;;;;;;;;;653040;213;626386;-72
2021/01/31 13:23:12;;;;;;;82.83;31.33;;;;;;;;;;652166;214;631653;-72
2021/01/31 13:25:37;;;;;;;46.10;25.27;;;;;;;;;;655875;214;638272;-72
2021/01/31 13:28:03;;;;;;;29.17;18.20;;;;;;;;;;651167;213;634703;-71
2021/01/31 13:30:30;;;;;;;46.43;24.97;;;;;;;;;;652967;214;641150;-71
2021/01/31 13:32:55;;;;;;;90.57;35.77;;;;;;;;;;655086;213;632339;-71
2021/01/31 13:35:21;;;;;;;43.10;20.00;;;;;;;;;;655744;214;622734;-72
2021/01/31 13:37:47;;;;;;;26.47;16.30;;;;;;;;;;651226;211;863329;-72
2021/01/31 13:40:13;;;;;;;29.13;14.20;;;;;;;;;;657009;213;630034;-72
2021/01/31 13:42:39;;;;;;;38.10;18.03;;;;;;;;;;651904;211;626104;-73
2021/01/31 13:45:05;;;;;;;22.83;13.30;;;;;;;;;;650106;214;917200;-73
2021/01/31 13:47:31;;;;;;;40.40;18.90;;;;;;;;;;651627;211;631725;-72
2021/01/31 13:49:58;;;;;;;68.37;27.97;;;;;;;;;;653661;214;791744;-71
2021/01/31 13:52:22;;;;;;;36.63;17.80;;;;;;;;;;650282;211;642842;-72
2021/01/31 13:54:49;;;;;;;27.08;15.57;;;;;;;;;;649531;214;1032988;-71
2021/01/31 13:57:14;;;;;;;35.33;16.63;;;;;;;;;;656650;214;626872;-70
2021/01/31 13:59:40;;;;;;;46.13;24.90;;;;;;;;;;652253;213;632003;-70
2021/01/31 14:02:06;;;;;;;31.70;16.13;;;;;;;;;;653175;214;620071;-71
2021/01/31 14:04:32;;;;;;;29.90;18.23;;;;;;;;;;653348;214;793401;-69